sensor_id;sensor_type;location;lat;lon;timestamp;pressure;altitude;pressure_sealevel;temperature;humidity
54856;BME280;40748;53.168;5.800;2022-11-20T00:00:29;101456.78;;;0.10;94.37
54856;BME280;40748;53.168;5.800;2022-11-20T00:02:59;101454.69;;;0.11;94.37
54856;BME280;40748;53.168;5.800;2022-11-20T00:05:31;101450.22;;;0.14;94.41
54856;BME280;40748;53.168;5.800;2022-11-20T00:07:59;101449.42;;;0.16;94.26
54856;BME280;40748;53.168;5.800;2022-11-20T00:12:59;101446.72;;;0.18;94.28
54856;BME280;40748;53.168;5.800;2022-11-20T00:15:30;101445.7;;;0.19;94.27
54856;BME280;40748;53.168;5.800;2022-11-20T00:17:59;101443.8;;;0.21;94.25
54856;BME280;40748;53.168;5.800;2022-11-20T00:22:59;101439.97;;;0.23;94.17
54856;BME280;40748;53.168;5.800;2022-11-20T00:25:29;101430.48999999999;;;0.24;94.19
54856;BME280;40748;53.168;5.800;2022-11-20T00:27:59;101429.16;;;0.25;94.13
54856;BME280;40748;53.168;5.800;2022-11-20T00:30:29;101423.78;;;0.24;93.97
54856;BME280;40748;53.168;5.800;2022-11-20T00:32:59;101424.95;;;0.23;93.96
54856;BME280;40748;53.168;5.800;2022-11-20T00:37:59;101420.62;;;0.22;93.85
54856;BME280;40748;53.168;5.800;2022-11-20T00:40:29;101418.55;;;0.20;93.61
54856;BME280;40748;53.168;5.800;2022-11-20T00:42:59;101415.55;;;0.18;93.63
54856;BME280;40748;53.168;5.800;2022-11-20T00:45:29;101416.9;;;0.16;93.52
54856;BME280;40748;53.168;5.800;2022-11-20T00:47:59;101419.09000000001;;;0.15;93.45
54856;BME280;40748;53.168;5.800;2022-11-20T00:50:29;101416.18999999999;;;0.12;93.33
54856;BME280;40748;53.168;5.800;2022-11-20T00:52:59;101417.6;;;0.11;93.48
54856;BME280;40748;53.168;5.800;2022-11-20T00:55:29;101415.42;;;0.12;93.62
54856;BME280;40748;53.168;5.800;2022-11-20T00:57:59;101416.83;;;0.13;93.79
54856;BME280;40748;53.168;5.800;2022-11-20T01:00:29;101414.71;;;0.16;93.72
54856;BME280;40748;53.168;5.800;2022-11-20T01:05:29;101421.75;;;0.17;94.02
54856;BME280;40748;53.168;5.800;2022-11-20T01:07:59;101416.99;;;0.20;94.25
54856;BME280;40748;53.168;5.800;2022-11-20T01:10:29;101415.67;;;0.22;94.21
54856;BME280;40748;53.168;5.800;2022-11-20T01:12:59;101415.73;;;0.25;94.36
54856;BME280;40748;53.168;5.800;2022-11-20T01:15:29;101414.06;;;0.27;94.29
54856;BME280;40748;53.168;5.800;2022-11-20T01:17:59;101412.27;;;0.30;94.35
54856;BME280;40748;53.168;5.800;2022-11-20T01:20:29;101411.78;;;0.31;94.33
54856;BME280;40748;53.168;5.800;2022-11-20T01:25:29;101411.87999999999;;;0.33;94.68
54856;BME280;40748;53.168;5.800;2022-11-20T01:27:59;101412.78;;;0.36;94.66
54856;BME280;40748;53.168;5.800;2022-11-20T01:30:29;101407.65;;;0.35;94.45
54856;BME280;40748;53.168;5.800;2022-11-20T01:32:59;101406.47;;;0.37;94.71
54856;BME280;40748;53.168;5.800;2022-11-20T01:37:59;101397.78;;;0.38;94.65
54856;BME280;40748;53.168;5.800;2022-11-20T01:47:59;101380.24;;;0.35;94.43
54856;BME280;40748;53.168;5.800;2022-11-20T01:53:00;101385.42;;;0.33;94.30
54856;BME280;40748;53.168;5.800;2022-11-20T01:57:59;101390.8;;;0.30;94.23
54856;BME280;40748;53.168;5.800;2022-11-20T02:00:29;101390.8;;;0.29;94.25
54856;BME280;40748;53.168;5.800;2022-11-20T02:03:00;101389.94;;;0.30;94.27
54856;BME280;40748;53.168;5.800;2022-11-20T02:05:31;101384.11;;;0.29;94.27
54856;BME280;40748;53.168;5.800;2022-11-20T02:07:59;101380.92;;;0.30;94.32
54856;BME280;40748;53.168;5.800;2022-11-20T02:12:59;101377.03;;;0.29;94.29
54856;BME280;40748;53.168;5.800;2022-11-20T02:15:29;101371.04000000001;;;0.28;94.31
54856;BME280;40748;53.168;5.800;2022-11-20T02:17:59;101369.41;;;0.27;94.34
54856;BME280;40748;53.168;5.800;2022-11-20T02:22:59;101368.83;;;0.28;94.38
54856;BME280;40748;53.168;5.800;2022-11-20T02:30:29;101357.11;;;0.29;94.42
54856;BME280;40748;53.168;5.800;2022-11-20T02:35:39;101352.45;;;0.31;94.59
54856;BME280;40748;53.168;5.800;2022-11-20T02:38:00;101355.82;;;0.32;94.63
54856;BME280;40748;53.168;5.800;2022-11-20T02:40:29;101357.46;;;0.33;94.57
54856;BME280;40748;53.168;5.800;2022-11-20T02:42:59;101353.14;;;0.34;94.71
54856;BME280;40748;53.168;5.800;2022-11-20T02:45:29;101352.25;;;0.35;94.76
54856;BME280;40748;53.168;5.800;2022-11-20T02:47:59;101351.12000000001;;;0.36;94.78
54856;BME280;40748;53.168;5.800;2022-11-20T02:50:29;101344.75;;;0.37;94.82
54856;BME280;40748;53.168;5.800;2022-11-20T02:52:59;101346.19;;;0.38;94.85
54856;BME280;40748;53.168;5.800;2022-11-20T02:55:29;101341.03;;;0.39;94.88
54856;BME280;40748;53.168;5.800;2022-11-20T02:57:59;101336.11;;;0.41;94.97
54856;BME280;40748;53.168;5.800;2022-11-20T03:02:59;101334.11;;;0.42;95.07
54856;BME280;40748;53.168;5.800;2022-11-20T03:05:29;101330.74;;;0.44;95.09
54856;BME280;40748;53.168;5.800;2022-11-20T03:07:59;101332.08;;;0.47;95.10
54856;BME280;40748;53.168;5.800;2022-11-20T03:12:59;101339.67;;;0.49;95.12
54856;BME280;40748;53.168;5.800;2022-11-20T03:15:29;101338.16;;;0.50;95.13
54856;BME280;40748;53.168;5.800;2022-11-20T03:17:59;101335.58;;;0.52;95.16
54856;BME280;40748;53.168;5.800;2022-11-20T03:20:29;101341.04;;;0.54;95.15
54856;BME280;40748;53.168;5.800;2022-11-20T03:22:59;101336.53;;;0.55;95.22
54856;BME280;40748;53.168;5.800;2022-11-20T03:25:29;101332.01000000001;;;0.58;95.30
54856;BME280;40748;53.168;5.800;2022-11-20T03:30:29;101313.65;;;0.57;95.29
54856;BME280;40748;53.168;5.800;2022-11-20T03:32:59;101314.23999999999;;;0.58;95.42
54856;BME280;40748;53.168;5.800;2022-11-20T03:35:29;101310.31;;;0.59;95.40
54856;BME280;40748;53.168;5.800;2022-11-20T03:42:59;101299.78;;;0.58;95.13
54856;BME280;40748;53.168;5.800;2022-11-20T03:47:59;101300.43;;;0.57;95.15
54856;BME280;40748;53.168;5.800;2022-11-20T03:50:29;101296.01;;;0.55;94.94
54856;BME280;40748;53.168;5.800;2022-11-20T03:52:59;101289.84;;;0.53;94.84
54856;BME280;40748;53.168;5.800;2022-11-20T03:55:29;101285.41;;;0.49;94.70
54856;BME280;40748;53.168;5.800;2022-11-20T03:57:59;101277.86;;;0.45;94.53
54856;BME280;40748;53.168;5.800;2022-11-20T04:00:29;101280.28;;;0.41;94.42
54856;BME280;40748;53.168;5.800;2022-11-20T04:02:59;101280.02;;;0.38;94.46
54856;BME280;40748;53.168;5.800;2022-11-20T04:05:29;101274.53;;;0.32;94.33
54856;BME280;40748;53.168;5.800;2022-11-20T04:07:59;101274.53;;;0.27;94.28
54856;BME280;40748;53.168;5.800;2022-11-20T04:10:29;101268.4;;;0.23;94.32
54856;BME280;40748;53.168;5.800;2022-11-20T04:12:59;101258.14;;;0.20;94.36
54856;BME280;40748;53.168;5.800;2022-11-20T04:15:29;101257.39;;;0.17;94.26
54856;BME280;40748;53.168;5.800;2022-11-20T04:17:59;101253.05;;;0.16;94.24
54856;BME280;40748;53.168;5.800;2022-11-20T04:20:29;101250.54000000001;;;0.14;94.21
54856;BME280;40748;53.168;5.800;2022-11-20T04:22:59;101248.8;;;0.11;94.16
54856;BME280;40748;53.168;5.800;2022-11-20T04:25:29;101247.01;;;0.10;94.03
54856;BME280;40748;53.168;5.800;2022-11-20T04:27:59;101245.14;;;0.06;93.96
54856;BME280;40748;53.168;5.800;2022-11-20T04:30:29;101238.4;;;0.03;93.96
54856;BME280;40748;53.168;5.800;2022-11-20T04:32:59;101235.1;;;0.01;93.91
54856;BME280;40748;53.168;5.800;2022-11-20T04:35:29;101232.3;;;-0.02;93.90
54856;BME280;40748;53.168;5.800;2022-11-20T04:37:59;101237.22;;;-0.04;93.82
54856;BME280;40748;53.168;5.800;2022-11-20T04:40:29;101241.38;;;-0.07;93.77
54856;BME280;40748;53.168;5.800;2022-11-20T04:42:59;101238.39;;;-0.09;93.68
54856;BME280;40748;53.168;5.800;2022-11-20T04:45:29;101239.14;;;-0.14;93.54
54856;BME280;40748;53.168;5.800;2022-11-20T04:47:59;101238.23;;;-0.19;93.42
54856;BME280;40748;53.168;5.800;2022-11-20T04:50:29;101242.46;;;-0.25;93.31
54856;BME280;40748;53.168;5.800;2022-11-20T04:52:59;101242.21;;;-0.29;93.27
54856;BME280;40748;53.168;5.800;2022-11-20T04:55:29;101239.61;;;-0.33;93.22
54856;BME280;40748;53.168;5.800;2022-11-20T04:57:59;101236.69;;;-0.35;93.29
54856;BME280;40748;53.168;5.800;2022-11-20T05:00:29;101240.16;;;-0.38;93.34
54856;BME280;40748;53.168;5.800;2022-11-20T05:02:59;101242.76999999999;;;-0.41;93.33
54856;BME280;40748;53.168;5.800;2022-11-20T05:05:29;101236.81;;;-0.43;93.37
54856;BME280;40748;53.168;5.800;2022-11-20T05:07:59;101226.5;;;-0.46;93.35
54856;BME280;40748;53.168;5.800;2022-11-20T05:10:29;101219.98;;;-0.50;93.55
54856;BME280;40748;53.168;5.800;2022-11-20T05:12:59;101219.98;;;-0.53;93.55
54856;BME280;40748;53.168;5.800;2022-11-20T05:15:29;101212.81;;;-0.57;93.59
54856;BME280;40748;53.168;5.800;2022-11-20T05:17:59;101209.47;;;-0.64;93.78
54856;BME280;40748;53.168;5.800;2022-11-20T05:20:29;101208.67;;;-0.65;94.05
54856;BME280;40748;53.168;5.800;2022-11-20T05:22:59;101211.17;;;-0.64;94.05
54856;BME280;40748;53.168;5.800;2022-11-20T05:27:59;101202.69;;;-0.66;93.90
54856;BME280;40748;53.168;5.800;2022-11-20T05:30:30;101203.5;;;-0.70;93.95
54856;BME280;40748;53.168;5.800;2022-11-20T05:32:59;101204.85;;;-0.71;94.06
54856;BME280;40748;53.168;5.800;2022-11-20T05:37:59;101189.09999999999;;;-0.70;94.10
54856;BME280;40748;53.168;5.800;2022-11-20T05:40:29;101192.31;;;-0.74;94.02
54856;BME280;40748;53.168;5.800;2022-11-20T05:45:29;101189.67;;;-0.72;94.38
54856;BME280;40748;53.168;5.800;2022-11-20T05:47:59;101194.17;;;-0.70;94.20
54856;BME280;40748;53.168;5.800;2022-11-20T05:50:29;101191.67;;;-0.71;94.03
54856;BME280;40748;53.168;5.800;2022-11-20T05:52:59;101191.95999999999;;;-0.74;93.92
54856;BME280;40748;53.168;5.800;2022-11-20T05:55:29;101192.89;;;-0.73;94.04
54856;BME280;40748;53.168;5.800;2022-11-20T05:57:59;101187.75;;;-0.74;93.91
54856;BME280;40748;53.168;5.800;2022-11-20T06:00:29;101189.9;;;-0.75;93.92
54856;BME280;40748;53.168;5.800;2022-11-20T06:02:59;101194.69;;;-0.77;93.86
54856;BME280;40748;53.168;5.800;2022-11-20T06:05:29;101197.83;;;-0.79;93.79
54856;BME280;40748;53.168;5.800;2022-11-20T06:08:00;101206.98999999999;;;-0.82;93.73
54856;BME280;40748;53.168;5.800;2022-11-20T06:10:29;101209.2;;;-0.84;93.64
54856;BME280;40748;53.168;5.800;2022-11-20T06:12:59;101208.01;;;-0.91;93.50
54856;BME280;40748;53.168;5.800;2022-11-20T06:15:29;101204.83;;;-0.94;93.50
54856;BME280;40748;53.168;5.800;2022-11-20T06:17:59;101200.36;;;-0.96;93.58
54856;BME280;40748;53.168;5.800;2022-11-20T06:20:29;101202.03;;;-0.97;93.61
54856;BME280;40748;53.168;5.800;2022-11-20T06:25:29;101203.31;;;-0.99;93.55
54856;BME280;40748;53.168;5.800;2022-11-20T06:27:59;101203.38;;;-1.00;93.61
54856;BME280;40748;53.168;5.800;2022-11-20T06:30:29;101202.92;;;-1.01;93.65
54856;BME280;40748;53.168;5.800;2022-11-20T06:32:59;101199.83;;;-1.03;93.62
54856;BME280;40748;53.168;5.800;2022-11-20T06:35:29;101202.08;;;-1.04;93.59
54856;BME280;40748;53.168;5.800;2022-11-20T06:37:59;101198.42;;;-1.05;93.58
54856;BME280;40748;53.168;5.800;2022-11-20T06:40:29;101201.44;;;-1.07;93.59
54856;BME280;40748;53.168;5.800;2022-11-20T06:42:59;101199.7;;;-1.06;93.59
54856;BME280;40748;53.168;5.800;2022-11-20T06:45:29;101194.37000000001;;;-1.07;93.58
54856;BME280;40748;53.168;5.800;2022-11-20T06:47:59;101195.06999999999;;;-1.08;93.59
54856;BME280;40748;53.168;5.800;2022-11-20T06:50:29;101194.17;;;-1.10;93.60
54856;BME280;40748;53.168;5.800;2022-11-20T06:53:00;101188.62000000001;;;-1.11;93.81
54856;BME280;40748;53.168;5.800;2022-11-20T06:55:29;101190.06000000001;;;-1.10;93.98
54856;BME280;40748;53.168;5.800;2022-11-20T06:57:59;101190.38;;;-1.12;94.03
54856;BME280;40748;53.168;5.800;2022-11-20T07:00:29;101190.89;;;-1.13;94.21
54856;BME280;40748;53.168;5.800;2022-11-20T07:03:02;101184.18000000001;;;-1.11;94.37
54856;BME280;40748;53.168;5.800;2022-11-20T07:07:59;101187.14;;;-1.10;94.40
54856;BME280;40748;53.168;5.800;2022-11-20T07:10:29;101191.35;;;-1.09;94.39
54856;BME280;40748;53.168;5.800;2022-11-20T07:12:59;101192.89;;;-1.07;94.39
54856;BME280;40748;53.168;5.800;2022-11-20T07:15:29;101194.26;;;-1.06;94.40
54856;BME280;40748;53.168;5.800;2022-11-20T07:20:29;101195.72;;;-1.03;94.63
54856;BME280;40748;53.168;5.800;2022-11-20T07:22:59;101196.04000000001;;;-1.01;94.59
54856;BME280;40748;53.168;5.800;2022-11-20T07:25:29;101196.26;;;-0.99;94.58
54856;BME280;40748;53.168;5.800;2022-11-20T07:27:59;101189.59;;;-0.96;94.63
54856;BME280;40748;53.168;5.800;2022-11-20T07:30:29;101185.55;;;-0.93;94.63
54856;BME280;40748;53.168;5.800;2022-11-20T07:32:59;101185.55;;;-0.90;94.83
54856;BME280;40748;53.168;5.800;2022-11-20T07:35:29;101181.03;;;-0.87;94.94
54856;BME280;40748;53.168;5.800;2022-11-20T07:37:59;101176.95;;;-0.86;95.05
54856;BME280;40748;53.168;5.800;2022-11-20T07:40:29;101173.91;;;-0.83;95.23
54856;BME280;40748;53.168;5.800;2022-11-20T07:42:59;101167.93000000001;;;-0.80;95.27
54856;BME280;40748;53.168;5.800;2022-11-20T07:45:29;101172.27;;;-0.76;95.39
54856;BME280;40748;53.168;5.800;2022-11-20T07:47:59;101169.34;;;-0.73;95.43
54856;BME280;40748;53.168;5.800;2022-11-20T07:50:29;101171.24;;;-0.72;95.64
54856;BME280;40748;53.168;5.800;2022-11-20T07:53:01;101164.65;;;-0.70;95.94
54856;BME280;40748;53.168;5.800;2022-11-20T07:55:29;101161.99;;;-0.67;96.29
54856;BME280;40748;53.168;5.800;2022-11-20T07:57:59;101159.09;;;-0.65;96.65
54856;BME280;40748;53.168;5.800;2022-11-20T08:00:29;101157.59000000001;;;-0.64;97.01
54856;BME280;40748;53.168;5.800;2022-11-20T08:02:59;101150.55;;;-0.63;97.33
54856;BME280;40748;53.168;5.800;2022-11-20T08:05:29;101151.25;;;-0.59;97.46
54856;BME280;40748;53.168;5.800;2022-11-20T08:07:59;101149.22;;;-0.62;97.41
54856;BME280;40748;53.168;5.800;2022-11-20T08:10:29;101150.61;;;-0.56;97.75
54856;BME280;40748;53.168;5.800;2022-11-20T08:12:59;101154.78;;;-0.55;97.39
54856;BME280;40748;53.168;5.800;2022-11-20T08:15:29;101160.11;;;-0.47;97.43
54856;BME280;40748;53.168;5.800;2022-11-20T08:18:00;101170.33;;;-0.44;97.06
54856;BME280;40748;53.168;5.800;2022-11-20T08:20:29;101170.39;;;-0.42;96.88
54856;BME280;40748;53.168;5.800;2022-11-20T08:23:00;101168.64;;;-0.38;96.90
54856;BME280;40748;53.168;5.800;2022-11-20T08:25:29;101166.09999999999;;;-0.33;96.90
54856;BME280;40748;53.168;5.800;2022-11-20T08:27:59;101154.81;;;-0.28;96.99
54856;BME280;40748;53.168;5.800;2022-11-20T08:30:29;101152.65000000001;;;-0.24;97.06
54856;BME280;40748;53.168;5.800;2022-11-20T08:33:00;101152.48;;;-0.20;97.26
54856;BME280;40748;53.168;5.800;2022-11-20T08:35:32;101154.14;;;-0.17;97.23
54856;BME280;40748;53.168;5.800;2022-11-20T08:37:59;101161.72;;;-0.12;97.18
54856;BME280;40748;53.168;5.800;2022-11-20T08:40:29;101165.25;;;-0.08;97.25
54856;BME280;40748;53.168;5.800;2022-11-20T08:42:59;101160.23;;;-0.01;97.46
54856;BME280;40748;53.168;5.800;2022-11-20T08:45:29;101160.23;;;0.07;97.66
54856;BME280;40748;53.168;5.800;2022-11-20T08:47:59;101157.37000000001;;;0.16;97.90
54856;BME280;40748;53.168;5.800;2022-11-20T08:50:29;101157.5;;;0.25;98.16
54856;BME280;40748;53.168;5.800;2022-11-20T08:53:02;101153.67;;;0.34;98.52
54856;BME280;40748;53.168;5.800;2022-11-20T08:55:29;101147.31;;;0.44;98.70
54856;BME280;40748;53.168;5.800;2022-11-20T08:58:02;101150.94;;;0.49;98.75
54856;BME280;40748;53.168;5.800;2022-11-20T09:00:29;101154.33;;;0.55;98.94
54856;BME280;40748;53.168;5.800;2022-11-20T09:02:59;101155.16;;;0.61;98.81
54856;BME280;40748;53.168;5.800;2022-11-20T09:05:29;101150.72;;;0.66;98.75
54856;BME280;40748;53.168;5.800;2022-11-20T09:07:59;101140.95999999999;;;0.75;98.87
54856;BME280;40748;53.168;5.800;2022-11-20T09:10:29;101142.21;;;0.83;99.00
54856;BME280;40748;53.168;5.800;2022-11-20T09:12:59;101144.14;;;0.93;99.20
54856;BME280;40748;53.168;5.800;2022-11-20T09:15:29;101144.51000000001;;;1.03;99.35
54856;BME280;40748;53.168;5.800;2022-11-20T09:18:00;101146.04000000001;;;1.12;99.45
54856;BME280;40748;53.168;5.800;2022-11-20T09:20:29;101148.75;;;1.23;99.65
54856;BME280;40748;53.168;5.800;2022-11-20T09:22:59;101147.58;;;1.33;99.77
54856;BME280;40748;53.168;5.800;2022-11-20T09:25:29;101141.03;;;1.43;100.00
54856;BME280;40748;53.168;5.800;2022-11-20T09:27:59;101139.26;;;1.54;100.00
54856;BME280;40748;53.168;5.800;2022-11-20T09:30:29;101141.07;;;1.63;100.00
54856;BME280;40748;53.168;5.800;2022-11-20T09:32:59;101147.46;;;1.72;100.00
54856;BME280;40748;53.168;5.800;2022-11-20T09:35:29;101138.37;;;1.81;100.00
54856;BME280;40748;53.168;5.800;2022-11-20T09:38:04;101134.59;;;1.90;100.00
54856;BME280;40748;53.168;5.800;2022-11-20T09:40:29;101136.14;;;1.98;100.00
54856;BME280;40748;53.168;5.800;2022-11-20T09:43:00;101136.14;;;2.08;100.00
54856;BME280;40748;53.168;5.800;2022-11-20T09:45:35;101138.65;;;2.18;100.00
54856;BME280;40748;53.168;5.800;2022-11-20T09:48:03;101131.34999999999;;;2.30;100.00
54856;BME280;40748;53.168;5.800;2022-11-20T09:50:31;101131.26999999999;;;2.40;100.00
54856;BME280;40748;53.168;5.800;2022-11-20T09:53:04;101136.01999999999;;;2.46;100.00
54856;BME280;40748;53.168;5.800;2022-11-20T09:55:29;101134.19;;;2.52;100.00
54856;BME280;40748;53.168;5.800;2022-11-20T09:57:59;101121.88;;;2.58;100.00
54856;BME280;40748;53.168;5.800;2022-11-20T10:00:29;101125.14;;;2.67;100.00
54856;BME280;40748;53.168;5.800;2022-11-20T10:03:00;101125.40000000001;;;2.75;100.00
54856;BME280;40748;53.168;5.800;2022-11-20T10:05:30;101123.25;;;2.80;100.00
54856;BME280;40748;53.168;5.800;2022-11-20T10:08:01;101117.24;;;2.85;100.00
54856;BME280;40748;53.168;5.800;2022-11-20T10:10:33;101117.24;;;2.89;100.00
54856;BME280;40748;53.168;5.800;2022-11-20T10:13:02;101113.34000000001;;;2.95;100.00
54856;BME280;40748;53.168;5.800;2022-11-20T10:15:33;101115.61;;;2.99;100.00
54856;BME280;40748;53.168;5.800;2022-11-20T10:18:03;101114.01;;;3.09;100.00
54856;BME280;40748;53.168;5.800;2022-11-20T10:20:30;101117.3;;;3.20;100.00
54856;BME280;40748;53.168;5.800;2022-11-20T10:23:04;101111.11;;;3.31;100.00
54856;BME280;40748;53.168;5.800;2022-11-20T10:25:30;101108.09000000001;;;3.39;100.00
54856;BME280;40748;53.168;5.800;2022-11-20T10:30:29;101101.21;;;3.50;100.00
54856;BME280;40748;53.168;5.800;2022-11-20T10:32:59;101103.74;;;3.53;100.00
54856;BME280;40748;53.168;5.800;2022-11-20T10:35:32;101095.48999999999;;;3.58;100.00
54856;BME280;40748;53.168;5.800;2022-11-20T10:38:02;101094.09000000001;;;3.62;100.00
54856;BME280;40748;53.168;5.800;2022-11-20T10:40:31;101086.86;;;3.69;100.00
54856;BME280;40748;53.168;5.800;2022-11-20T10:43:00;101083.7;;;3.80;100.00
54856;BME280;40748;53.168;5.800;2022-11-20T10:45:40;101073.83;;;3.92;100.00
54856;BME280;40748;53.168;5.800;2022-11-20T10:48:04;101075.9;;;4.06;100.00
54856;BME280;40748;53.168;5.800;2022-11-20T10:50:29;101078.22;;;4.16;100.00
54856;BME280;40748;53.168;5.800;2022-11-20T10:53:00;101079.72;;;4.25;100.00
54856;BME280;40748;53.168;5.800;2022-11-20T10:55:30;101071.75;;;4.32;100.00
54856;BME280;40748;53.168;5.800;2022-11-20T10:58:01;101065.83;;;4.38;100.00
54856;BME280;40748;53.168;5.800;2022-11-20T11:00:30;101070.58;;;4.42;100.00
54856;BME280;40748;53.168;5.800;2022-11-20T11:02:59;101063.55;;;4.46;100.00
54856;BME280;40748;53.168;5.800;2022-11-20T11:05:32;101063.55;;;4.47;100.00
54856;BME280;40748;53.168;5.800;2022-11-20T11:07:59;101058.91;;;4.48;100.00
54856;BME280;40748;53.168;5.800;2022-11-20T11:10:32;101051.58;;;4.44;100.00
54856;BME280;40748;53.168;5.800;2022-11-20T11:12:59;101054.35;;;4.43;100.00
54856;BME280;40748;53.168;5.800;2022-11-20T11:15:30;101055.26;;;4.40;99.87
54856;BME280;40748;53.168;5.800;2022-11-20T11:17:59;101052.04;;;4.38;99.51
54856;BME280;40748;53.168;5.800;2022-11-20T11:20:29;101043.16;;;4.36;99.16
54856;BME280;40748;53.168;5.800;2022-11-20T11:22:59;101035.69;;;4.35;98.95
54856;BME280;40748;53.168;5.800;2022-11-20T11:25:30;101035.49;;;4.36;99.18
54856;BME280;40748;53.168;5.800;2022-11-20T11:28:00;101029.74;;;4.39;99.21
54856;BME280;40748;53.168;5.800;2022-11-20T11:30:30;101028.19;;;4.41;98.84
54856;BME280;40748;53.168;5.800;2022-11-20T11:33:02;101026.86;;;4.46;99.18
54856;BME280;40748;53.168;5.800;2022-11-20T11:35:29;101027.59;;;4.55;98.84
54856;BME280;40748;53.168;5.800;2022-11-20T11:38:02;101024.33;;;4.68;98.84
54856;BME280;40748;53.168;5.800;2022-11-20T11:40:29;101012.95;;;4.88;99.70
54856;BME280;40748;53.168;5.800;2022-11-20T11:42:59;101001.79000000001;;;5.37;100.00
54856;BME280;40748;53.168;5.800;2022-11-20T11:45:29;101001.79000000001;;;5.87;100.00
54856;BME280;40748;53.168;5.800;2022-11-20T11:48:00;100995.73000000001;;;6.31;100.00
54856;BME280;40748;53.168;5.800;2022-11-20T11:50:29;100996.29;;;6.50;100.00
54856;BME280;40748;53.168;5.800;2022-11-20T11:53:02;100994.11;;;6.41;100.00
54856;BME280;40748;53.168;5.800;2022-11-20T11:55:31;101000.8;;;6.40;99.61
54856;BME280;40748;53.168;5.800;2022-11-20T11:58:04;101002.73;;;6.27;100.00
54856;BME280;40748;53.168;5.800;2022-11-20T12:00:29;100999.87;;;6.17;98.60
54856;BME280;40748;53.168;5.800;2022-11-20T12:03:02;100995.97;;;6.00;97.39
54856;BME280;40748;53.168;5.800;2022-11-20T12:05:30;100991.67;;;5.87;96.38
54856;BME280;40748;53.168;5.800;2022-11-20T12:08:01;100997.15;;;5.80;95.99
54856;BME280;40748;53.168;5.800;2022-11-20T12:10:34;100993.16;;;5.70;95.52
54856;BME280;40748;53.168;5.800;2022-11-20T12:13:00;100987.92;;;5.63;95.02
54856;BME280;40748;53.168;5.800;2022-11-20T12:15:30;100985.06;;;5.58;94.87
54856;BME280;40748;53.168;5.800;2022-11-20T12:17:59;100972.6;;;5.53;94.57
54856;BME280;40748;53.168;5.800;2022-11-20T12:20:32;100972.67;;;5.44;94.45
54856;BME280;40748;53.168;5.800;2022-11-20T12:23:01;100968.92;;;5.42;94.29
54856;BME280;40748;53.168;5.800;2022-11-20T12:25:30;100964.58;;;5.35;93.89
54856;BME280;40748;53.168;5.800;2022-11-20T12:28:03;100961.64;;;5.30;93.66
54856;BME280;40748;53.168;5.800;2022-11-20T12:30:29;100951.98000000001;;;5.24;93.30
54856;BME280;40748;53.168;5.800;2022-11-20T12:33:06;100946.37;;;5.19;93.16
54856;BME280;40748;53.168;5.800;2022-11-20T12:35:33;100945.26;;;5.12;92.98
54856;BME280;40748;53.168;5.800;2022-11-20T12:38:04;100936.81;;;5.06;92.89
54856;BME280;40748;53.168;5.800;2022-11-20T12:40:32;100928.59999999999;;;4.98;92.37
54856;BME280;40748;53.168;5.800;2022-11-20T12:43:01;100924.69;;;4.92;92.00
54856;BME280;40748;53.168;5.800;2022-11-20T12:45:33;100921.75;;;4.82;91.93
54856;BME280;40748;53.168;5.800;2022-11-20T12:48:03;100918.42;;;4.72;91.90
54856;BME280;40748;53.168;5.800;2022-11-20T12:50:32;100912.63;;;4.70;91.81
54856;BME280;40748;53.168;5.800;2022-11-20T12:53:01;100913.23;;;4.71;91.56
54856;BME280;40748;53.168;5.800;2022-11-20T12:55:32;100905.83;;;4.68;91.33
54856;BME280;40748;53.168;5.800;2022-11-20T12:58:01;100898.97;;;4.59;91.30
54856;BME280;40748;53.168;5.800;2022-11-20T13:00:29;100897.76000000001;;;4.56;91.02
54856;BME280;40748;53.168;5.800;2022-11-20T13:03:04;100895.39;;;4.44;91.70
54856;BME280;40748;53.168;5.800;2022-11-20T13:05:31;100898.28;;;4.39;89.85
54856;BME280;40748;53.168;5.800;2022-11-20T13:08:00;100893.36;;;4.40;90.87
54856;BME280;40748;53.168;5.800;2022-11-20T13:10:31;100892.88;;;4.33;91.09
54856;BME280;40748;53.168;5.800;2022-11-20T13:13:00;100882.89;;;4.31;89.07
54856;BME280;40748;53.168;5.800;2022-11-20T13:15:35;100877.4;;;4.34;90.98
54856;BME280;40748;53.168;5.800;2022-11-20T13:17:59;100871.59;;;4.37;90.77
54856;BME280;40748;53.168;5.800;2022-11-20T13:20:29;100862.26000000001;;;4.31;90.53
54856;BME280;40748;53.168;5.800;2022-11-20T13:22:59;100866.18999999999;;;4.32;90.41
54856;BME280;40748;53.168;5.800;2022-11-20T13:25:30;100866.36;;;4.33;90.45
54856;BME280;40748;53.168;5.800;2022-11-20T13:28:01;100857.54;;;4.34;90.44
54856;BME280;40748;53.168;5.800;2022-11-20T13:33:01;100847.47;;;4.32;89.90
54856;BME280;40748;53.168;5.800;2022-11-20T13:35:30;100841.18999999999;;;4.31;89.99
54856;BME280;40748;53.168;5.800;2022-11-20T13:40:29;100838.39;;;4.29;89.74
54856;BME280;40748;53.168;5.800;2022-11-20T13:43:07;100831.53;;;4.28;89.71
54856;BME280;40748;53.168;5.800;2022-11-20T13:45:30;100822.79999999999;;;4.24;89.73
54856;BME280;40748;53.168;5.800;2022-11-20T13:48:01;100812.98000000001;;;4.21;89.59
54856;BME280;40748;53.168;5.800;2022-11-20T13:50:38;100809.04000000001;;;4.18;89.40
54856;BME280;40748;53.168;5.800;2022-11-20T13:53:00;100808.09000000001;;;4.15;89.40
54856;BME280;40748;53.168;5.800;2022-11-20T13:55:31;100805.47;;;4.12;89.27
54856;BME280;40748;53.168;5.800;2022-11-20T13:58:03;100805.47;;;4.08;89.63
54856;BME280;40748;53.168;5.800;2022-11-20T14:00:29;100805.17;;;4.02;89.49
54856;BME280;40748;53.168;5.800;2022-11-20T14:03:01;100805.66;;;3.97;90.11
54856;BME280;40748;53.168;5.800;2022-11-20T14:05:30;100802.84;;;3.92;90.14
54856;BME280;40748;53.168;5.800;2022-11-20T14:07:59;100803.27;;;3.86;89.21
54856;BME280;40748;53.168;5.800;2022-11-20T14:10:29;100796.06;;;3.75;89.92
54856;BME280;40748;53.168;5.800;2022-11-20T14:13:09;100796.2;;;3.69;90.85